createdAt,value
2022-10-18T00:00:25.818Z,10.70
2022-10-18T00:02:52.517Z,10.70
2022-10-18T00:05:19.249Z,10.70
2022-10-18T00:07:45.902Z,10.70
2022-10-18T00:10:12.632Z,10.70
2022-10-18T00:12:39.405Z,10.70
2022-10-18T00:15:06.105Z,10.60
2022-10-18T00:17:32.997Z,10.60
2022-10-18T00:19:59.862Z,10.50
2022-10-18T00:22:26.580Z,10.50
2022-10-18T00:24:53.324Z,10.50
2022-10-18T00:27:20.024Z,10.50
2022-10-18T00:29:47.424Z,10.40
2022-10-18T00:32:14.189Z,10.40
2022-10-18T00:34:41.140Z,10.50
2022-10-18T00:37:07.925Z,10.40
2022-10-18T00:39:34.675Z,10.40
2022-10-18T00:42:01.545Z,10.30
2022-10-18T00:44:28.277Z,10.30
2022-10-18T00:46:54.962Z,10.30
2022-10-18T00:49:21.599Z,10.30
2022-10-18T00:51:48.336Z,10.30
2022-10-18T00:54:15.027Z,10.30
2022-10-18T00:56:41.741Z,10.20
2022-10-18T00:59:08.502Z,10.20
2022-10-18T01:01:35.261Z,10.20
2022-10-18T01:04:01.981Z,10.10
2022-10-18T01:06:28.740Z,10.10
2022-10-18T01:08:56.755Z,10.10
2022-10-18T01:11:23.437Z,10.20
2022-10-18T01:13:50.135Z,10.20
2022-10-18T01:16:16.866Z,10.10
2022-10-18T01:18:43.559Z,10.10
2022-10-18T01:21:10.293Z,10.10
2022-10-18T01:23:36.997Z,10.00
2022-10-18T01:26:03.674Z,10.00
2022-10-18T01:28:30.362Z,9.90
2022-10-18T01:30:57.057Z,9.90
2022-10-18T01:33:23.811Z,9.90
2022-10-18T01:35:50.545Z,9.90
2022-10-18T01:38:17.995Z,9.90
2022-10-18T01:40:44.653Z,9.90
2022-10-18T01:43:11.368Z,9.90
2022-10-18T01:45:38.054Z,9.90
2022-10-18T01:48:04.719Z,9.90
2022-10-18T01:50:31.423Z,9.90
2022-10-18T01:52:58.132Z,9.80
2022-10-18T01:55:24.830Z,9.80
2022-10-18T01:57:51.501Z,9.80
2022-10-18T02:00:18.172Z,9.70
2022-10-18T02:02:44.893Z,9.70
2022-10-18T02:05:11.620Z,9.60
2022-10-18T02:07:38.365Z,9.60
2022-10-18T02:10:05.984Z,9.60
2022-10-18T02:12:32.786Z,9.60
2022-10-18T02:14:59.678Z,9.60
2022-10-18T02:17:26.348Z,9.60
2022-10-18T02:19:53.037Z,9.60
2022-10-18T02:22:19.825Z,9.60
2022-10-18T02:24:46.488Z,9.50
2022-10-18T02:27:13.209Z,9.50
2022-10-18T02:29:39.926Z,9.50
2022-10-18T02:32:06.582Z,9.50
2022-10-18T02:34:33.370Z,9.50
2022-10-18T02:37:00.024Z,9.50
2022-10-18T02:39:26.750Z,9.40
2022-10-18T02:41:53.452Z,9.50
2022-10-18T02:44:20.084Z,9.40
2022-10-18T02:46:46.784Z,9.40
2022-10-18T02:49:13.444Z,9.40
2022-10-18T02:51:40.121Z,9.40
2022-10-18T02:54:08.372Z,9.40
2022-10-18T02:56:35.071Z,9.40
2022-10-18T02:59:01.866Z,9.30
2022-10-18T03:01:28.607Z,9.30
2022-10-18T03:03:55.361Z,9.30
2022-10-18T03:06:22.018Z,9.20
2022-10-18T03:08:48.771Z,9.20
2022-10-18T03:11:15.446Z,9.20
2022-10-18T03:13:42.108Z,9.10
2022-10-18T03:16:08.805Z,9.10
2022-10-18T03:18:35.465Z,9.10
2022-10-18T03:21:02.111Z,9.10
2022-10-18T03:23:28.891Z,9.10
2022-10-18T03:25:55.616Z,9.10
2022-10-18T03:28:22.331Z,9.10
2022-10-18T03:30:49.075Z,9.10
2022-10-18T03:33:15.807Z,9.10
2022-10-18T03:35:42.455Z,9.10
2022-10-18T03:38:09.184Z,9.10
2022-10-18T03:40:35.907Z,9.00
2022-10-18T03:43:02.605Z,9.00
2022-10-18T03:45:31.303Z,9.00
2022-10-18T03:47:58.460Z,8.90
2022-10-18T03:50:25.141Z,8.90
2022-10-18T03:52:51.895Z,8.80
2022-10-18T03:55:18.560Z,8.80
2022-10-18T03:57:45.209Z,8.80
2022-10-18T04:00:12.619Z,8.80
2022-10-18T04:02:39.274Z,8.80
2022-10-18T04:05:06.015Z,8.80
2022-10-18T04:07:32.760Z,8.80
2022-10-18T04:09:59.461Z,8.80
2022-10-18T04:12:26.161Z,8.80
2022-10-18T04:14:55.355Z,8.80
2022-10-18T04:17:22.307Z,8.80
2022-10-18T04:19:49.459Z,8.70
2022-10-18T04:22:16.167Z,8.70
2022-10-18T04:24:42.880Z,8.60
2022-10-18T04:27:09.583Z,8.60
2022-10-18T04:29:36.253Z,8.60
2022-10-18T04:32:03.067Z,8.70
2022-10-18T04:34:29.782Z,8.60
2022-10-18T04:36:56.539Z,8.60
2022-10-18T04:39:23.217Z,8.60
2022-10-18T04:41:49.870Z,8.60
2022-10-18T04:44:16.551Z,8.60
2022-10-18T04:46:43.215Z,8.60
2022-10-18T04:49:09.922Z,8.50
2022-10-18T04:51:36.938Z,8.50
2022-10-18T04:54:03.679Z,8.50
2022-10-18T04:56:30.567Z,8.50
2022-10-18T04:58:57.375Z,8.40
2022-10-18T05:01:24.235Z,8.40
2022-10-18T05:03:51.072Z,8.40
2022-10-18T05:06:18.070Z,8.30
2022-10-18T05:08:44.994Z,8.30
2022-10-18T05:11:11.967Z,8.30
2022-10-18T05:13:38.823Z,8.30
2022-10-18T05:16:05.939Z,8.30
2022-10-18T05:18:32.789Z,8.30
2022-10-18T05:20:59.462Z,8.30
2022-10-18T05:23:26.176Z,8.30
2022-10-18T05:25:52.892Z,8.30
2022-10-18T05:28:39.725Z,8.30
2022-10-18T05:31:06.232Z,8.30
2022-10-18T05:33:32.876Z,8.20
2022-10-18T05:35:59.555Z,8.20
2022-10-18T05:38:26.330Z,8.20
2022-10-18T05:40:53.193Z,8.20
2022-10-18T05:43:19.887Z,8.20
2022-10-18T05:45:46.554Z,8.20
2022-10-18T05:48:13.243Z,8.10
2022-10-18T05:50:40.470Z,8.10
2022-10-18T05:53:12.480Z,8.10
2022-10-18T05:55:51.375Z,8.10
2022-10-18T05:58:18.052Z,8.00
2022-10-18T06:00:44.686Z,8.00
2022-10-18T06:03:11.428Z,7.90
2022-10-18T06:08:08.012Z,8.00
2022-10-18T06:10:36.942Z,8.00
2022-10-18T06:13:03.622Z,8.00
2022-10-18T06:15:30.301Z,7.90
2022-10-18T06:17:57.004Z,7.90
2022-10-18T06:20:23.673Z,7.90
2022-10-18T06:22:50.355Z,7.90
2022-10-18T06:25:17.048Z,7.90
2022-10-18T06:27:43.795Z,7.90
2022-10-18T06:30:10.448Z,7.90
2022-10-18T06:32:37.117Z,7.90
2022-10-18T06:35:03.775Z,7.90
2022-10-18T06:37:31.046Z,7.80
2022-10-18T06:39:58.002Z,7.80
2022-10-18T06:42:24.693Z,7.80
2022-10-18T06:44:51.383Z,7.80
2022-10-18T06:47:18.095Z,7.80
2022-10-18T06:49:44.791Z,7.80
2022-10-18T06:52:11.485Z,7.90
2022-10-18T06:54:38.181Z,7.90
2022-10-18T06:57:04.906Z,7.90
2022-10-18T06:59:31.716Z,7.90
2022-10-18T07:01:58.537Z,7.90
2022-10-18T07:04:25.332Z,7.90
2022-10-18T07:06:52.050Z,7.90
2022-10-18T07:09:18.799Z,8.00
2022-10-18T07:11:45.526Z,8.00
2022-10-18T07:14:15.416Z,8.00
2022-10-18T07:16:43.021Z,8.10
2022-10-18T07:19:09.809Z,8.10
2022-10-18T07:21:36.492Z,8.10
2022-10-18T07:24:03.175Z,8.20
2022-10-18T07:26:29.890Z,8.20
2022-10-18T07:28:57.965Z,8.20
2022-10-18T07:31:24.779Z,8.20
2022-10-18T07:33:51.465Z,8.20
2022-10-18T07:36:18.250Z,8.30
2022-10-18T07:38:44.967Z,8.30
2022-10-18T07:41:11.643Z,8.30
2022-10-18T07:43:38.386Z,8.40
2022-10-18T07:46:05.157Z,8.40
2022-10-18T07:48:31.853Z,8.50
2022-10-18T07:50:58.545Z,8.50
2022-10-18T07:53:25.254Z,8.60
2022-10-18T07:55:52.011Z,8.50
2022-10-18T07:58:18.733Z,8.50
2022-10-18T08:00:45.434Z,8.60
2022-10-18T08:03:12.147Z,8.70
2022-10-18T08:05:39.031Z,8.70
2022-10-18T08:08:08.005Z,8.80
2022-10-18T08:10:35.086Z,8.90
2022-10-18T08:13:01.800Z,9.00
2022-10-18T08:15:28.493Z,9.00
2022-10-18T08:17:55.150Z,9.10
2022-10-18T08:20:30.780Z,9.20
2022-10-18T08:23:00.404Z,9.20
2022-10-18T08:25:27.454Z,9.30
2022-10-18T08:27:54.193Z,9.40
2022-10-18T08:30:20.918Z,9.50
2022-10-18T08:32:47.583Z,9.50
2022-10-18T08:35:14.321Z,9.60
2022-10-18T08:37:40.979Z,9.70
2022-10-18T08:40:07.729Z,9.70
2022-10-18T08:42:34.845Z,9.80
2022-10-18T08:45:08.325Z,9.90
2022-10-18T08:47:49.300Z,10.00
2022-10-18T08:50:16.012Z,10.10
2022-10-18T08:52:43.453Z,10.20
2022-10-18T08:55:10.239Z,10.30
2022-10-18T08:57:36.969Z,10.40
2022-10-18T09:00:03.638Z,10.50
2022-10-18T09:02:30.664Z,10.60
2022-10-18T09:04:57.581Z,10.70
2022-10-18T09:07:24.668Z,10.80
2022-10-18T09:09:51.343Z,10.90
2022-10-18T09:12:18.095Z,10.90
2022-10-18T09:14:45.287Z,11.00
2022-10-18T09:17:15.834Z,11.10
2022-10-18T09:19:43.073Z,11.10
2022-10-18T09:22:09.880Z,11.20
2022-10-18T09:24:36.556Z,11.30
2022-10-18T09:27:03.343Z,11.40
2022-10-18T09:29:30.169Z,11.40
2022-10-18T09:31:56.914Z,11.50
2022-10-18T09:34:23.589Z,11.50
2022-10-18T09:36:50.328Z,11.60
2022-10-18T09:39:17.273Z,11.60
2022-10-18T09:41:43.993Z,11.70
2022-10-18T09:44:10.734Z,11.80
2022-10-18T09:46:37.492Z,11.90
2022-10-18T09:49:04.338Z,11.90
2022-10-18T09:51:31.139Z,12.00
2022-10-18T09:53:58.000Z,12.00
2022-10-18T09:56:24.698Z,12.10
2022-10-18T09:58:51.648Z,12.10
2022-10-18T10:01:18.335Z,12.20
2022-10-18T10:03:45.055Z,12.30
2022-10-18T10:06:11.777Z,12.30
2022-10-18T10:08:38.466Z,12.40
2022-10-18T10:11:05.119Z,12.40
2022-10-18T10:13:32.480Z,12.40
2022-10-18T10:15:59.203Z,12.50
2022-10-18T10:18:25.911Z,12.50
2022-10-18T10:20:52.715Z,12.50
2022-10-18T10:25:51.031Z,12.70
2022-10-18T10:28:17.843Z,12.70
2022-10-18T10:30:44.604Z,12.80
2022-10-18T10:33:11.350Z,12.80
2022-10-18T10:35:54.276Z,12.90
2022-10-18T10:38:21.155Z,12.90
2022-10-18T10:40:50.200Z,13.00
2022-10-18T10:43:32.912Z,13.00
2022-10-18T10:46:03.636Z,13.00
2022-10-18T10:48:33.283Z,13.10
2022-10-18T10:51:00.666Z,13.20
2022-10-18T10:53:27.455Z,13.20
2022-10-18T10:55:54.126Z,13.30
2022-10-18T10:58:20.802Z,13.40
2022-10-18T11:00:47.502Z,13.40
2022-10-18T11:03:28.028Z,13.50
2022-10-18T11:05:55.658Z,13.50
2022-10-18T11:08:24.032Z,13.50
2022-10-18T11:10:52.949Z,13.60
2022-10-18T11:13:23.245Z,13.60
2022-10-18T11:15:49.936Z,13.70
2022-10-18T11:18:17.440Z,13.70
2022-10-18T11:20:44.218Z,13.80
2022-10-18T11:23:10.866Z,13.80
2022-10-18T11:25:37.602Z,13.90
2022-10-18T11:28:04.465Z,14.00
2022-10-18T11:30:31.203Z,14.00
2022-10-18T11:32:57.976Z,14.10
2022-10-18T11:35:25.063Z,14.10
2022-10-18T11:37:51.956Z,14.10
2022-10-18T11:40:18.613Z,14.20
2022-10-18T11:42:45.376Z,14.20
2022-10-18T11:45:12.146Z,14.20
2022-10-18T11:47:38.893Z,14.30
2022-10-18T11:50:05.583Z,14.30
2022-10-18T11:52:32.315Z,14.40
2022-10-18T11:54:59.036Z,14.40
2022-10-18T11:57:25.780Z,14.50
2022-10-18T11:59:52.889Z,14.50
2022-10-18T12:02:19.904Z,14.50
2022-10-18T12:04:59.808Z,14.50
2022-10-18T12:07:34.453Z,14.60
2022-10-18T12:10:01.211Z,14.60
2022-10-18T12:12:28.020Z,14.60
2022-10-18T12:14:54.779Z,14.60
2022-10-18T12:17:41.117Z,14.70
2022-10-18T12:20:08.412Z,14.70
2022-10-18T12:22:35.454Z,14.80
2022-10-18T12:25:02.662Z,14.90
2022-10-18T12:27:29.426Z,14.90
2022-10-18T12:29:56.106Z,15.00
2022-10-18T12:32:22.896Z,15.00
2022-10-18T12:34:49.840Z,15.10
2022-10-18T12:37:16.689Z,15.10
2022-10-18T12:39:58.472Z,15.10
2022-10-18T12:42:30.417Z,15.10
2022-10-18T12:44:57.197Z,15.10
2022-10-18T12:47:24.102Z,15.20
2022-10-18T12:49:50.896Z,15.20
2022-10-18T12:52:17.708Z,15.20
2022-10-18T12:54:47.466Z,15.20
2022-10-18T12:57:14.249Z,15.20
2022-10-18T12:59:41.002Z,15.20
2022-10-18T13:02:07.790Z,15.20
2022-10-18T13:04:34.875Z,15.30
2022-10-18T13:07:03.088Z,15.30
2022-10-18T13:09:29.851Z,15.30
2022-10-18T13:11:59.823Z,15.40
2022-10-18T13:14:28.609Z,15.30
2022-10-18T13:16:55.348Z,15.40
2022-10-18T13:19:22.066Z,15.40
2022-10-18T13:21:48.747Z,15.40
2022-10-18T13:24:15.549Z,15.40
2022-10-18T13:26:42.244Z,15.50
2022-10-18T13:29:08.987Z,15.40
2022-10-18T13:31:35.808Z,15.40
2022-10-18T13:34:02.486Z,15.50
2022-10-18T13:36:29.672Z,15.50
2022-10-18T13:38:57.841Z,15.50
2022-10-18T13:43:52.595Z,15.60
2022-10-18T13:46:19.471Z,15.60
2022-10-18T13:48:46.782Z,15.70
2022-10-18T13:51:13.525Z,15.60
2022-10-18T13:53:40.216Z,15.70
2022-10-18T13:56:06.932Z,15.70
2022-10-18T13:58:33.657Z,15.70
2022-10-18T14:01:00.473Z,15.70
2022-10-18T14:06:20.145Z,15.70
2022-10-18T14:08:46.962Z,15.70
2022-10-18T14:11:14.153Z,15.70
2022-10-18T14:13:40.911Z,15.70
2022-10-18T14:16:07.655Z,15.70
2022-10-18T14:18:34.368Z,15.70
2022-10-18T14:21:13.265Z,15.70
2022-10-18T14:23:40.299Z,15.70
2022-10-18T14:26:07.080Z,15.70
2022-10-18T14:28:55.122Z,15.70
2022-10-18T14:31:20.483Z,15.70
2022-10-18T14:33:47.215Z,15.70
2022-10-18T14:36:15.620Z,15.70
2022-10-18T14:38:42.770Z,15.70
2022-10-18T14:41:09.447Z,15.70
2022-10-18T14:43:36.154Z,15.80
2022-10-18T14:46:03.177Z,15.70
2022-10-18T14:48:30.019Z,15.80
2022-10-18T14:51:00.554Z,15.70
2022-10-18T14:53:30.710Z,15.70
2022-10-18T14:55:57.430Z,15.70
2022-10-18T14:58:24.161Z,15.70
2022-10-18T15:00:50.880Z,15.70
2022-10-18T15:03:17.571Z,15.70
2022-10-18T15:05:44.415Z,15.70
2022-10-18T15:08:11.304Z,15.70
2022-10-18T15:10:38.268Z,15.60
2022-10-18T15:13:09.777Z,15.70
2022-10-18T15:15:37.127Z,15.70
2022-10-18T15:18:05.366Z,15.60
2022-10-18T15:20:32.149Z,15.60
2022-10-18T15:22:58.923Z,15.60
2022-10-18T15:25:29.344Z,15.60
2022-10-18T15:28:00.466Z,15.50
2022-10-18T15:30:28.115Z,15.50
2022-10-18T15:32:54.890Z,15.50
2022-10-18T15:35:25.924Z,15.50
2022-10-18T15:37:53.245Z,15.40
2022-10-18T15:40:19.994Z,15.40
2022-10-18T15:42:46.770Z,15.40
2022-10-18T15:45:13.456Z,15.40
2022-10-18T15:47:40.185Z,15.30
2022-10-18T15:50:06.884Z,15.30
2022-10-18T15:52:37.776Z,15.30
2022-10-18T15:55:04.700Z,15.30
2022-10-18T15:57:31.518Z,15.20
2022-10-18T15:59:58.255Z,15.20
2022-10-18T16:02:24.952Z,15.20
2022-10-18T16:04:51.663Z,15.20
2022-10-18T16:07:18.368Z,15.10
2022-10-18T16:09:45.081Z,15.10
2022-10-18T16:12:11.759Z,15.00
2022-10-18T16:14:38.423Z,15.00
2022-10-18T16:17:05.407Z,15.00
2022-10-18T16:19:32.323Z,14.90
2022-10-18T16:22:03.626Z,14.90
2022-10-18T16:24:32.922Z,14.80
2022-10-18T16:26:59.675Z,14.80
2022-10-18T16:29:28.692Z,14.70
2022-10-18T16:31:58.268Z,14.70
2022-10-18T16:34:26.890Z,14.60
2022-10-18T16:36:53.566Z,14.60
2022-10-18T16:39:20.429Z,14.60
2022-10-18T16:41:47.142Z,14.50
2022-10-18T16:44:13.904Z,14.40
2022-10-18T16:46:41.089Z,14.40
2022-10-18T16:49:07.904Z,14.40
2022-10-18T16:51:34.635Z,14.30
2022-10-18T16:54:01.581Z,14.20
2022-10-18T16:56:28.405Z,14.20
2022-10-18T16:58:55.083Z,14.20
2022-10-18T17:01:21.926Z,14.10
2022-10-18T17:03:48.857Z,14.10
2022-10-18T17:06:15.590Z,14.00
2022-10-18T17:08:42.274Z,14.00
2022-10-18T17:11:08.940Z,14.00
2022-10-18T17:13:35.637Z,13.90
2022-10-18T17:16:03.890Z,13.90
2022-10-18T17:18:30.766Z,13.90
2022-10-18T17:20:59.347Z,13.90
2022-10-18T17:23:26.228Z,13.80
2022-10-18T17:26:05.141Z,13.80
2022-10-18T17:28:33.824Z,13.80
2022-10-18T17:31:00.583Z,13.70
2022-10-18T17:33:27.287Z,13.70
2022-10-18T17:35:54.000Z,13.70
2022-10-18T17:38:20.734Z,13.70
2022-10-18T17:40:47.564Z,13.60
2022-10-18T17:43:14.493Z,13.60
2022-10-18T17:45:41.493Z,13.50
2022-10-18T17:48:08.200Z,13.50
2022-10-18T17:50:34.937Z,13.50
2022-10-18T17:53:01.701Z,13.50
2022-10-18T17:55:30.093Z,13.40
2022-10-18T17:57:56.750Z,13.40
2022-10-18T18:00:24.637Z,13.30
2022-10-18T18:02:51.406Z,13.30
2022-10-18T18:05:18.126Z,13.30
2022-10-18T18:07:44.894Z,13.30
2022-10-18T18:10:11.660Z,13.20
2022-10-18T18:12:38.522Z,13.20
2022-10-18T18:15:05.377Z,13.20
2022-10-18T18:17:34.305Z,13.20
2022-10-18T18:20:06.735Z,13.20
2022-10-18T18:22:34.137Z,13.10
2022-10-18T18:25:02.021Z,13.10
2022-10-18T18:27:28.711Z,13.10
2022-10-18T18:29:56.253Z,13.10
2022-10-18T18:32:22.987Z,13.10
2022-10-18T18:34:49.684Z,13.10
2022-10-18T18:37:16.385Z,13.10
2022-10-18T18:39:43.231Z,13.10
2022-10-18T18:42:10.901Z,13.10
2022-10-18T18:44:38.021Z,13.10
2022-10-18T18:47:10.878Z,13.00
2022-10-18T18:49:39.853Z,13.00
2022-10-18T18:52:06.582Z,13.00
2022-10-18T18:54:33.350Z,13.00
2022-10-18T18:57:02.697Z,13.00
2022-10-18T18:59:29.549Z,13.00
2022-10-18T19:01:56.489Z,12.90
2022-10-18T19:04:23.332Z,12.90
2022-10-18T19:06:50.031Z,12.90
2022-10-18T19:09:22.120Z,12.90
2022-10-18T19:11:49.012Z,12.80
2022-10-18T19:14:16.190Z,12.80
2022-10-18T19:16:43.063Z,12.80
2022-10-18T19:19:09.737Z,12.80
2022-10-18T19:21:36.525Z,12.80
2022-10-18T19:24:03.203Z,12.70
2022-10-18T19:26:30.124Z,12.70
2022-10-18T19:28:56.858Z,12.70
2022-10-18T19:31:23.636Z,12.70
2022-10-18T19:33:59.432Z,12.70
2022-10-18T19:36:26.621Z,12.70
2022-10-18T19:38:53.332Z,12.70
2022-10-18T19:41:20.102Z,12.70
2022-10-18T19:43:46.805Z,12.70
2022-10-18T19:46:13.494Z,12.60
2022-10-18T19:48:40.183Z,12.70
2022-10-18T19:51:08.929Z,12.60
2022-10-18T19:53:36.482Z,12.60
2022-10-18T19:56:03.195Z,12.60
2022-10-18T19:58:29.920Z,12.60
2022-10-18T20:00:56.691Z,12.60
2022-10-18T20:03:23.479Z,12.60
2022-10-18T20:05:50.184Z,12.60
2022-10-18T20:08:16.884Z,12.60
2022-10-18T20:10:43.583Z,12.60
2022-10-18T20:13:10.361Z,12.60
2022-10-18T20:15:39.051Z,12.60
2022-10-18T20:18:05.838Z,12.60
2022-10-18T20:20:32.627Z,12.60
2022-10-18T20:22:59.572Z,12.60
2022-10-18T20:25:26.375Z,12.60
2022-10-18T20:27:53.018Z,12.60
2022-10-18T20:30:19.848Z,12.60
2022-10-18T20:32:49.090Z,12.60
2022-10-18T20:35:15.893Z,12.60
2022-10-18T20:37:42.741Z,12.60
2022-10-18T20:40:09.623Z,12.60
2022-10-18T20:42:36.511Z,12.50
2022-10-18T20:47:36.000Z,12.50
2022-10-18T20:50:02.855Z,12.60
2022-10-18T20:52:29.531Z,12.60
2022-10-18T20:54:56.504Z,12.60
2022-10-18T20:57:23.300Z,12.60
2022-10-18T20:59:50.096Z,12.60
2022-10-18T21:02:16.824Z,12.60
2022-10-18T21:04:43.620Z,12.50
2022-10-18T21:07:10.507Z,12.50
2022-10-18T21:09:37.522Z,12.60
2022-10-18T21:12:04.405Z,12.60
2022-10-18T21:14:31.115Z,12.50
2022-10-18T21:16:57.881Z,12.50
2022-10-18T21:19:24.589Z,12.50
2022-10-18T21:21:51.318Z,12.60
2022-10-18T21:24:18.165Z,12.60
2022-10-18T21:26:45.000Z,12.60
2022-10-18T21:29:11.762Z,12.50
2022-10-18T21:31:39.261Z,12.60
2022-10-18T21:34:06.000Z,12.60
2022-10-18T21:36:32.744Z,12.60
2022-10-18T21:38:59.437Z,12.60
2022-10-18T21:41:26.111Z,12.60
2022-10-18T21:43:52.825Z,12.60
2022-10-18T21:46:19.538Z,12.60
2022-10-18T21:48:46.258Z,12.60
2022-10-18T21:51:13.012Z,12.60
2022-10-18T21:53:39.754Z,12.60
2022-10-18T21:56:06.526Z,12.60
2022-10-18T21:58:33.311Z,12.60
2022-10-18T22:01:00.176Z,12.60
2022-10-18T22:03:27.093Z,12.60
2022-10-18T22:05:53.799Z,12.60
2022-10-18T22:08:20.494Z,12.60
2022-10-18T22:10:47.235Z,12.60
2022-10-18T22:13:14.013Z,12.60
2022-10-18T22:15:41.026Z,12.60
2022-10-18T22:18:07.919Z,12.60
2022-10-18T22:20:34.663Z,12.60
2022-10-18T22:23:01.506Z,12.60
2022-10-18T22:25:28.219Z,12.60
2022-10-18T22:27:54.916Z,12.60
2022-10-18T22:30:21.646Z,12.60
2022-10-18T22:32:48.441Z,12.50
2022-10-18T22:35:15.147Z,12.50
2022-10-18T22:37:41.816Z,12.50
2022-10-18T22:40:08.528Z,12.50
2022-10-18T22:45:06.865Z,12.50
2022-10-18T22:47:33.973Z,12.50
2022-10-18T22:50:00.947Z,12.40
2022-10-18T22:52:27.674Z,12.40
2022-10-18T22:54:54.444Z,12.40
2022-10-18T22:57:21.259Z,12.50
2022-10-18T22:59:48.117Z,12.40
2022-10-18T23:02:14.920Z,12.40
2022-10-18T23:04:41.577Z,12.40
2022-10-18T23:07:08.287Z,12.40
2022-10-18T23:09:34.982Z,12.40
2022-10-18T23:12:01.689Z,12.40
2022-10-18T23:14:28.389Z,12.40
2022-10-18T23:16:55.186Z,12.40
2022-10-18T23:19:21.891Z,12.30
2022-10-18T23:21:48.590Z,12.30
2022-10-18T23:24:15.538Z,12.30
2022-10-18T23:26:42.340Z,12.30
2022-10-18T23:29:09.163Z,12.30
2022-10-18T23:31:36.059Z,12.30
2022-10-18T23:34:02.770Z,12.30
2022-10-18T23:36:29.464Z,12.30
2022-10-18T23:38:56.153Z,12.30
2022-10-18T23:41:22.890Z,12.30
2022-10-18T23:43:49.724Z,12.30
2022-10-18T23:46:16.480Z,12.30
2022-10-18T23:48:43.205Z,12.30
2022-10-18T23:51:10.040Z,12.30
2022-10-18T23:53:36.822Z,12.30
2022-10-18T23:56:03.530Z,12.30
2022-10-18T23:58:30.243Z,12.30
